Blountsville, AL (35031)

04:21 AM CDT del 30 Marzo 2015 (GMT -0500)
Palisades Park | | Change Station
CLOSE
Current Station
Stazione meteo personale
Location: Oneonta, AL
Altitudine: 1302 ft
Stazioni meteo nelle vicinanze

Alt. 1302 ft 33.99 °N, 86.46 °W | Updated 1 minute ago

Pioggia
Pioggia
55.6 °F
Sembra 55.6 °F
N
4.0
Vento Variabile Vento da NNO
Gusts 11.0 mph

Oggi
Massima -- | Minima -- °F
--% Possibilità di precip.
Ieri
Massima -- | Minima -- °F
Precip. -- in
6:36 AM 7:05 PM
Gobba a ponente, 78% visible
Pressione 30.11 in
Visibilità 5.0 miglia
Nuvole Nubi sparse 900 ft
Molto nuvoloso 1200 ft
Coperto 2300 ft
Punto di rugiada 53 °F
Umidità 92%
Piovosità 0.00 in
Spessore del manto nevoso Non disponibile.
Raggi UV 0 fuori da 12
Polline 9.70 fuori da 12
Qualità dell'aria Non disponibile.
Flu Activity Non disponibile.
METAR KCMD 300915Z AUTO 00000KT 5SM -RA SCT009 BKN012 OVC023 12/12 A3011 RMK AO2 LTG DSNT E W AND NW P0008 T01220116

More Conditions Fewer Conditions

Pressione 30.11 in
Visibilità 5.0 miglia
Nuvole Nubi sparse 900 ft
Molto nuvoloso 1200 ft
Coperto 2300 ft
Punto di rugiada 53 °F
Umidità 92%
Piovosità 0.00 in
Spessore del manto nevoso Non disponibile.
Raggi UV 0 fuori da 12
Polline 9.70 fuori da 12
Qualità dell'aria Non disponibile.
Flu Activity Non disponibile.
METAR KCMD 300915Z AUTO 00000KT 5SM -RA SCT009 BKN012 OVC023 12/12 A3011 RMK AO2 LTG DSNT E W AND NW P0008 T01220116

More Conditions Fewer Conditions

10-Day Weather Forecast

Almanac

Astronomia

Mar. 30, 2015 Alba Tramonto
Ora attuale
Crepuscolo civile
Crepuscolo nautico
Crepuscolo astronomico
Luna
Estensione della luce visibile
Lunghezza del giorno
Tomorrow will be .
, % of the Moon is Illuminated

Gli estremi di oggi

State Highs State Lows

Community

WunderPhotos

Upload Photos

1,809,452 foto caricate!

WunderBlogs® & News

Nearby

Qualità dell'aria

  Qualità dell'aria Indice AQ Inquinante
Not available.

Profondità neve

Stazione Profondità Altitudine

Attività sismica

Città  Distanza Mag. Data & Ora
Minimo Magnitudo Mostrato è 2.5.

Temperature delle acque costiere

Località Temperatura

Stations

Stazioni meteo nelle vicinanze

Ubicazione della stazione Temp. Raffreddamento del vento Punto di rugiada Umidità Vento Precip. Alt. Aggiornato Tipo